Terminal Aerodrome Forecast
Issued by NWS

Home | Current Version | Previous Version | Text Only | Print | Product List | Glossary On
Versions: 1 2 3 4 5 6 7 8 9 10 11 12 13 14 15 16 17 18 19 20 21
000
FTUS43 KDLH 221601 AAC
TAFHIB
TAF AMD
KHIB 221601Z 2216/2312 00000KT P6SM BKN006
      TEMPO 2216/2217 5SM BR SCT006
     FM221700 13004KT P6SM SCT030 BKN080
     FM221800 28006KT P6SM VCSH SCT040 BKN090
      TEMPO 2222/2224 5SM -TSRA BKN030CB
     FM230200 29005KT 6SM BR SCT050
     FM230700 33004KT 4SM BR SCT015=

USA.gov is the U.S. government's official web portal to all federal, state and local government web resources and services.